sensor_id;sensor_type;location;lat;lon;timestamp;pressure;altitude;pressure_sealevel;temperature;humidity
11038;BME280;5572;49.540;11.932;2023-04-30T02:27:29;96754.72;;;9.61;100.00
11038;BME280;5572;49.540;11.932;2023-04-30T02:29:56;96761.97;;;9.65;100.00
11038;BME280;5572;49.540;11.932;2023-04-30T02:32:23;96762.50;;;9.67;100.00
11038;BME280;5572;49.540;11.932;2023-04-30T02:34:50;96775.44;;;9.70;100.00
11038;BME280;5572;49.540;11.932;2023-04-30T02:37:16;96773.06;;;9.59;100.00
11038;BME280;5572;49.540;11.932;2023-04-30T02:39:43;96769.53;;;9.63;100.00
11038;BME280;5572;49.540;11.932;2023-04-30T02:42:09;96780.28;;;9.68;100.00
11038;BME280;5572;49.540;11.932;2023-04-30T02:44:38;96785.69;;;9.73;100.00
11038;BME280;5572;49.540;11.932;2023-04-30T02:47:04;96785.25;;;9.51;100.00
11038;BME280;5572;49.540;11.932;2023-04-30T02:49:31;96781.44;;;9.57;100.00
11038;BME280;5572;49.540;11.932;2023-04-30T02:51:57;96784.44;;;9.51;100.00
11038;BME280;5572;49.540;11.932;2023-04-30T02:54:24;96791.47;;;9.52;100.00
11038;BME280;5572;49.540;11.932;2023-04-30T02:56:50;96786.63;;;9.44;100.00
11038;BME280;5572;49.540;11.932;2023-04-30T02:59:17;96791.19;;;9.48;100.00
11038;BME280;5572;49.540;11.932;2023-04-30T03:01:45;96796.38;;;9.40;100.00
11038;BME280;5572;49.540;11.932;2023-04-30T03:04:11;96789.25;;;9.54;100.00
11038;BME280;5572;49.540;11.932;2023-04-30T03:06:38;96795.19;;;9.61;100.00
11038;BME280;5572;49.540;11.932;2023-04-30T03:09:05;96790.84;;;9.65;100.00
11038;BME280;5572;49.540;11.932;2023-04-30T03:11:31;96787.06;;;9.66;100.00
11038;BME280;5572;49.540;11.932;2023-04-30T03:14:01;96798.13;;;9.64;100.00
11038;BME280;5572;49.540;11.932;2023-04-30T03:16:28;96794.34;;;9.65;100.00
11038;BME280;5572;49.540;11.932;2023-04-30T03:18:56;96804.94;;;9.52;100.00
11038;BME280;5572;49.540;11.932;2023-04-30T03:21:23;96803.91;;;9.38;100.00
11038;BME280;5572;49.540;11.932;2023-04-30T03:23:49;96805.53;;;9.34;100.00
11038;BME280;5572;49.540;11.932;2023-04-30T03:26:16;96817.16;;;9.35;100.00
11038;BME280;5572;49.540;11.932;2023-04-30T03:28:42;96789.59;;;9.47;100.00
11038;BME280;5572;49.540;11.932;2023-04-30T03:31:09;96792.25;;;9.52;100.00
11038;BME280;5572;49.540;11.932;2023-04-30T03:33:36;96791.50;;;9.42;100.00
11038;BME280;5572;49.540;11.932;2023-04-30T03:36:04;96801.47;;;9.46;100.00
11038;BME280;5572;49.540;11.932;2023-04-30T03:38:31;96796.94;;;9.32;100.00
11038;BME280;5572;49.540;11.932;2023-04-30T03:40:58;96799.84;;;9.40;100.00
11038;BME280;5572;49.540;11.932;2023-04-30T03:43:24;96790.94;;;9.45;100.00
11038;BME280;5572;49.540;11.932;2023-04-30T03:45:51;96796.31;;;9.50;100.00
11038;BME280;5572;49.540;11.932;2023-04-30T03:48:17;96790.38;;;9.53;100.00
11038;BME280;5572;49.540;11.932;2023-04-30T03:50:44;96792.78;;;9.54;100.00
11038;BME280;5572;49.540;11.932;2023-04-30T03:53:12;96797.94;;;9.46;100.00
11038;BME280;5572;49.540;11.932;2023-04-30T03:55:38;96807.94;;;9.40;100.00
11038;BME280;5572;49.540;11.932;2023-04-30T03:58:05;96774.84;;;9.20;100.00
11038;BME280;5572;49.540;11.932;2023-04-30T04:00:31;96763.75;;;9.32;100.00
11038;BME280;5572;49.540;11.932;2023-04-30T04:02:58;96782.13;;;9.25;100.00
11038;BME280;5572;49.540;11.932;2023-04-30T04:05:25;96775.06;;;9.29;100.00
11038;BME280;5572;49.540;11.932;2023-04-30T04:07:51;96775.91;;;9.29;100.00
11038;BME280;5572;49.540;11.932;2023-04-30T04:10:19;96783.19;;;9.24;100.00
11038;BME280;5572;49.540;11.932;2023-04-30T04:12:45;96783.41;;;9.42;100.00
11038;BME280;5572;49.540;11.932;2023-04-30T04:15:12;96778.00;;;9.42;100.00
11038;BME280;5572;49.540;11.932;2023-04-30T04:17:38;96779.69;;;9.28;100.00
11038;BME280;5572;49.540;11.932;2023-04-30T04:20:06;96791.75;;;9.40;100.00
11038;BME280;5572;49.540;11.932;2023-04-30T04:22:33;96789.84;;;9.51;100.00
11038;BME280;5572;49.540;11.932;2023-04-30T04:25:00;96782.53;;;9.51;100.00
11038;BME280;5572;49.540;11.932;2023-04-30T04:27:28;96790.28;;;9.68;100.00
11038;BME280;5572;49.540;11.932;2023-04-30T04:29:54;96791.63;;;9.70;100.00
11038;BME280;5572;49.540;11.932;2023-04-30T04:32:21;96791.91;;;9.64;100.00
11038;BME280;5572;49.540;11.932;2023-04-30T04:34:48;96790.03;;;9.64;100.00
11038;BME280;5572;49.540;11.932;2023-04-30T04:37:15;96792.63;;;9.84;100.00
11038;BME280;5572;49.540;11.932;2023-04-30T04:39:42;96796.13;;;9.90;100.00
11038;BME280;5572;49.540;11.932;2023-04-30T04:42:09;96803.97;;;9.86;100.00
11038;BME280;5572;49.540;11.932;2023-04-30T04:44:37;96793.91;;;10.02;100.00
11038;BME280;5572;49.540;11.932;2023-04-30T04:47:03;96798.47;;;10.06;100.00
11038;BME280;5572;49.540;11.932;2023-04-30T04:49:30;96802.81;;;10.02;100.00
11038;BME280;5572;49.540;11.932;2023-04-30T04:51:56;96801.13;;;10.11;100.00
11038;BME280;5572;49.540;11.932;2023-04-30T04:54:23;96817.63;;;10.05;100.00
11038;BME280;5572;49.540;11.932;2023-04-30T04:56:50;96819.72;;;10.23;100.00
11038;BME280;5572;49.540;11.932;2023-04-30T04:59:16;96813.25;;;10.19;100.00
11038;BME280;5572;49.540;11.932;2023-04-30T05:01:45;96830.59;;;10.08;100.00
11038;BME280;5572;49.540;11.932;2023-04-30T05:04:11;96810.53;;;10.19;100.00
11038;BME280;5572;49.540;11.932;2023-04-30T05:06:38;96813.09;;;10.38;100.00
11038;BME280;5572;49.540;11.932;2023-04-30T05:09:04;96809.56;;;10.43;100.00
11038;BME280;5572;49.540;11.932;2023-04-30T05:11:33;96812.47;;;10.51;100.00
11038;BME280;5572;49.540;11.932;2023-04-30T05:14:00;96816.19;;;10.55;100.00
11038;BME280;5572;49.540;11.932;2023-04-30T05:16:26;96817.19;;;10.64;100.00
11038;BME280;5572;49.540;11.932;2023-04-30T05:18:54;96812.88;;;10.97;100.00
11038;BME280;5572;49.540;11.932;2023-04-30T05:21:21;96815.94;;;11.13;100.00
11038;BME280;5572;49.540;11.932;2023-04-30T05:23:47;96799.91;;;11.22;100.00
11038;BME280;5572;49.540;11.932;2023-04-30T05:26:14;96820.19;;;11.19;100.00
11038;BME280;5572;49.540;11.932;2023-04-30T05:28:40;96833.31;;;11.08;100.00
11038;BME280;5572;49.540;11.932;2023-04-30T05:31:07;96847.44;;;11.28;100.00
11038;BME280;5572;49.540;11.932;2023-04-30T05:33:33;96877.03;;;11.71;100.00
11038;BME280;5572;49.540;11.932;2023-04-30T05:36:02;96862.00;;;12.44;100.00
11038;BME280;5572;49.540;11.932;2023-04-30T05:38:29;96868.47;;;13.30;100.00
11038;BME280;5572;49.540;11.932;2023-04-30T05:40:56;96925.44;;;12.43;100.00
11038;BME280;5572;49.540;11.932;2023-04-30T05:43:22;96907.44;;;12.70;100.00
11038;BME280;5572;49.540;11.932;2023-04-30T05:45:49;96904.53;;;12.43;100.00
11038;BME280;5572;49.540;11.932;2023-04-30T05:48:15;96879.28;;;14.02;100.00
11038;BME280;5572;49.540;11.932;2023-04-30T05:50:42;96947.75;;;12.77;100.00
11038;BME280;5572;49.540;11.932;2023-04-30T05:53:10;96935.41;;;12.84;100.00
11038;BME280;5572;49.540;11.932;2023-04-30T05:55:36;96960.00;;;12.09;100.00
11038;BME280;5572;49.540;11.932;2023-04-30T05:58:03;96947.13;;;12.43;100.00
11038;BME280;5572;49.540;11.932;2023-04-30T06:00:30;96974.78;;;11.41;100.00
11038;BME280;5572;49.540;11.932;2023-04-30T06:02:57;96968.75;;;12.06;100.00
11038;BME280;5572;49.540;11.932;2023-04-30T06:05:23;96973.88;;;11.51;100.00
11038;BME280;5572;49.540;11.932;2023-04-30T06:07:50;96964.44;;;11.77;100.00
11038;BME280;5572;49.540;11.932;2023-04-30T06:10:18;96982.00;;;13.60;100.00
11038;BME280;5572;49.540;11.932;2023-04-30T06:12:45;96972.06;;;13.18;100.00
11038;BME280;5572;49.540;11.932;2023-04-30T06:15:11;97011.09;;;11.35;100.00
11038;BME280;5572;49.540;11.932;2023-04-30T06:17:38;96945.56;;;14.33;100.00
11038;BME280;5572;49.540;11.932;2023-04-30T06:20:06;96995.59;;;12.26;100.00
11038;BME280;5572;49.540;11.932;2023-04-30T06:22:32;96955.16;;;14.17;100.00
11038;BME280;5572;49.540;11.932;2023-04-30T06:24:59;96912.78;;;15.44;100.00
11038;BME280;5572;49.540;11.932;2023-04-30T06:27:27;96943.38;;;14.21;100.00
11038;BME280;5572;49.540;11.932;2023-04-30T06:29:53;96964.41;;;13.07;100.00
11038;BME280;5572;49.540;11.932;2023-04-30T06:32:20;96881.56;;;16.27;100.00
11038;BME280;5572;49.540;11.932;2023-04-30T06:34:47;96917.28;;;14.20;100.00
11038;BME280;5572;49.540;11.932;2023-04-30T06:37:13;96892.28;;;15.02;100.00
11038;BME280;5572;49.540;11.932;2023-04-30T06:39:40;96838.28;;;16.34;100.00
11038;BME280;5572;49.540;11.932;2023-04-30T06:42:06;96808.06;;;16.22;100.00
11038;BME280;5572;49.540;11.932;2023-04-30T06:44:34;96779.66;;;16.99;100.00
11038;BME280;5572;49.540;11.932;2023-04-30T06:47:00;96773.59;;;16.68;100.00
11038;BME280;5572;49.540;11.932;2023-04-30T06:49:27;96790.25;;;16.25;100.00
11038;BME280;5572;49.540;11.932;2023-04-30T06:51:53;96770.53;;;16.53;100.00
11038;BME280;5572;49.540;11.932;2023-04-30T06:54:25;96776.09;;;17.07;100.00
11038;BME280;5572;49.540;11.932;2023-04-30T06:56:55;96792.56;;;16.48;100.00
11038;BME280;5572;49.540;11.932;2023-04-30T06:59:21;96781.22;;;17.17;100.00
11038;BME280;5572;49.540;11.932;2023-04-30T07:01:49;96763.06;;;17.67;100.00
11038;BME280;5572;49.540;11.932;2023-04-30T07:04:16;96739.88;;;18.02;100.00
11038;BME280;5572;49.540;11.932;2023-04-30T07:06:43;96767.13;;;16.98;100.00
11038;BME280;5572;49.540;11.932;2023-04-30T07:09:10;96774.56;;;17.52;100.00
11038;BME280;5572;49.540;11.932;2023-04-30T07:11:37;96777.41;;;16.25;100.00
11038;BME280;5572;49.540;11.932;2023-04-30T07:14:04;96830.88;;;15.70;100.00
11038;BME280;5572;49.540;11.932;2023-04-30T07:16:31;96895.75;;;14.94;100.00
11038;BME280;5572;49.540;11.932;2023-04-30T07:18:59;96953.19;;;14.44;100.00
11038;BME280;5572;49.540;11.932;2023-04-30T07:21:25;96961.25;;;14.98;100.00
11038;BME280;5572;49.540;11.932;2023-04-30T07:23:52;96990.47;;;14.44;100.00
11038;BME280;5572;49.540;11.932;2023-04-30T07:26:18;96994.47;;;14.86;100.00
11038;BME280;5572;49.540;11.932;2023-04-30T07:28:46;97012.97;;;13.90;100.00
11038;BME280;5572;49.540;11.932;2023-04-30T07:31:12;97013.03;;;14.58;100.00
11038;BME280;5572;49.540;11.932;2023-04-30T07:33:39;97011.09;;;14.85;100.00
11038;BME280;5572;49.540;11.932;2023-04-30T07:36:08;97025.72;;;14.35;100.00
11038;BME280;5572;49.540;11.932;2023-04-30T07:38:34;97013.25;;;14.74;100.00
11038;BME280;5572;49.540;11.932;2023-04-30T07:41:01;97012.75;;;14.46;100.00
11038;BME280;5572;49.540;11.932;2023-04-30T07:43:28;97010.09;;;14.67;100.00
11038;BME280;5572;49.540;11.932;2023-04-30T07:45:55;97033.91;;;14.75;100.00
11038;BME280;5572;49.540;11.932;2023-04-30T07:48:21;97019.25;;;14.85;100.00
11038;BME280;5572;49.540;11.932;2023-04-30T07:50:48;97013.31;;;14.69;100.00
11038;BME280;5572;49.540;11.932;2023-04-30T07:53:16;97029.38;;;15.20;100.00
11038;BME280;5572;49.540;11.932;2023-04-30T07:55:43;97009.69;;;14.74;100.00
11038;BME280;5572;49.540;11.932;2023-04-30T07:58:10;97020.09;;;15.34;100.00
11038;BME280;5572;49.540;11.932;2023-04-30T08:00:36;97023.56;;;15.48;100.00
11038;BME280;5572;49.540;11.932;2023-04-30T08:03:03;97031.41;;;15.28;100.00
11038;BME280;5572;49.540;11.932;2023-04-30T08:05:29;97034.59;;;15.43;100.00
11038;BME280;5572;49.540;11.932;2023-04-30T08:07:56;96991.72;;;16.09;100.00
11038;BME280;5572;49.540;11.932;2023-04-30T08:10:24;97026.09;;;14.96;100.00
11038;BME280;5572;49.540;11.932;2023-04-30T08:12:51;96963.75;;;16.81;100.00
11038;BME280;5572;49.540;11.932;2023-04-30T08:15:18;96926.41;;;16.35;100.00
11038;BME280;5572;49.540;11.932;2023-04-30T08:17:45;97021.84;;;14.09;100.00
11038;BME280;5572;49.540;11.932;2023-04-30T08:20:12;96963.53;;;16.14;100.00
11038;BME280;5572;49.540;11.932;2023-04-30T08:22:39;96947.41;;;15.73;100.00
11038;BME280;5572;49.540;11.932;2023-04-30T08:25:06;96957.72;;;15.76;100.00
11038;BME280;5572;49.540;11.932;2023-04-30T10:23:40;96406.63;;;18.51;100.00
11038;BME280;5572;49.540;11.932;2023-04-30T10:26:08;96479.50;;;18.32;100.00
11038;BME280;5572;49.540;11.932;2023-04-30T10:28:36;96403.31;;;20.03;100.00
11038;BME280;5572;49.540;11.932;2023-04-30T10:31:06;96223.00;;;18.99;100.00
11038;BME280;5572;49.540;11.932;2023-04-30T10:33:41;96416.97;;;18.10;100.00
11038;BME280;5572;49.540;11.932;2023-04-30T10:36:21;96521.03;;;18.02;100.00
11038;BME280;5572;49.540;11.932;2023-04-30T10:38:51;96489.28;;;17.56;100.00
11038;BME280;5572;49.540;11.932;2023-04-30T10:41:19;96530.91;;;18.95;100.00
11038;BME280;5572;49.540;11.932;2023-04-30T10:43:46;96403.53;;;20.41;100.00
11038;BME280;5572;49.540;11.932;2023-04-30T10:46:21;96421.50;;;19.01;100.00
11038;BME280;5572;49.540;11.932;2023-04-30T10:48:48;96502.84;;;16.75;100.00
11038;BME280;5572;49.540;11.932;2023-04-30T10:51:16;96548.16;;;16.30;100.00
11038;BME280;5572;49.540;11.932;2023-04-30T10:56:41;96427.28;;;17.08;100.00
11038;BME280;5572;49.540;11.932;2023-04-30T10:59:10;96484.34;;;17.70;100.00
11038;BME280;5572;49.540;11.932;2023-04-30T11:01:54;96197.28;;;19.31;100.00
11038;BME280;5572;49.540;11.932;2023-04-30T11:04:24;96240.91;;;18.81;100.00
11038;BME280;5572;49.540;11.932;2023-04-30T11:07:00;96396.25;;;18.21;100.00
11038;BME280;5572;49.540;11.932;2023-04-30T11:09:35;96330.56;;;18.45;100.00
11038;BME280;5572;49.540;11.932;2023-04-30T11:12:09;96353.91;;;19.45;100.00
11038;BME280;5572;49.540;11.932;2023-04-30T11:14:39;96371.19;;;18.31;100.00
11038;BME280;5572;49.540;11.932;2023-04-30T11:17:08;96375.88;;;18.94;100.00
11038;BME280;5572;49.540;11.932;2023-04-30T11:19:37;96378.88;;;18.89;100.00
11038;BME280;5572;49.540;11.932;2023-04-30T11:22:15;96409.66;;;19.21;100.00
11038;BME280;5572;49.540;11.932;2023-04-30T11:24:50;96241.31;;;18.68;100.00
11038;BME280;5572;49.540;11.932;2023-04-30T11:27:21;96287.97;;;19.10;100.00
11038;BME280;5572;49.540;11.932;2023-04-30T11:29:53;96255.44;;;18.97;100.00
11038;BME280;5572;49.540;11.932;2023-04-30T11:32:22;96468.47;;;17.23;100.00
11038;BME280;5572;49.540;11.932;2023-04-30T11:34:49;96476.09;;;18.95;100.00
11038;BME280;5572;49.540;11.932;2023-04-30T11:37:18;96458.19;;;17.93;100.00
11038;BME280;5572;49.540;11.932;2023-04-30T11:39:45;96408.72;;;18.54;100.00
11038;BME280;5572;49.540;11.932;2023-04-30T11:42:15;96586.47;;;16.88;100.00
11038;BME280;5572;49.540;11.932;2023-04-30T11:44:43;96440.53;;;17.91;100.00
11038;BME280;5572;49.540;11.932;2023-04-30T11:47:11;96299.53;;;18.53;100.00
11038;BME280;5572;49.540;11.932;2023-04-30T11:49:38;96207.97;;;18.38;100.00
11038;BME280;5572;49.540;11.932;2023-04-30T11:52:05;96134.72;;;19.05;100.00
11038;BME280;5572;49.540;11.932;2023-04-30T11:54:35;96262.41;;;18.28;100.00
11038;BME280;5572;49.540;11.932;2023-04-30T11:57:01;96173.22;;;18.39;100.00
11038;BME280;5572;49.540;11.932;2023-04-30T11:59:29;96302.06;;;18.34;100.00
11038;BME280;5572;49.540;11.932;2023-04-30T12:01:57;96451.81;;;17.89;100.00
11038;BME280;5572;49.540;11.932;2023-04-30T12:04:25;96196.00;;;19.90;100.00
11038;BME280;5572;49.540;11.932;2023-04-30T12:06:51;96289.09;;;20.29;100.00
11038;BME280;5572;49.540;11.932;2023-04-30T12:09:18;96276.28;;;18.35;100.00
11038;BME280;5572;49.540;11.932;2023-04-30T12:11:46;96265.59;;;18.30;100.00
11038;BME280;5572;49.540;11.932;2023-04-30T12:14:13;96103.25;;;18.69;100.00
11038;BME280;5572;49.540;11.932;2023-04-30T12:16:41;96167.75;;;17.76;100.00
11038;BME280;5572;49.540;11.932;2023-04-30T12:19:11;96237.25;;;19.93;100.00
11038;BME280;5572;49.540;11.932;2023-04-30T12:21:38;96155.25;;;19.42;100.00
11038;BME280;5572;49.540;11.932;2023-04-30T12:24:06;96124.63;;;19.21;100.00
11038;BME280;5572;49.540;11.932;2023-04-30T12:26:33;96094.09;;;20.45;100.00
11038;BME280;5572;49.540;11.932;2023-04-30T12:29:02;95995.22;;;20.22;100.00
11038;BME280;5572;49.540;11.932;2023-04-30T12:31:31;96101.25;;;19.27;100.00
11038;BME280;5572;49.540;11.932;2023-04-30T12:33:57;96147.50;;;19.13;100.00
11038;BME280;5572;49.540;11.932;2023-04-30T12:36:30;96108.88;;;19.18;100.00
11038;BME280;5572;49.540;11.932;2023-04-30T12:39:08;96160.31;;;18.39;100.00
11038;BME280;5572;49.540;11.932;2023-04-30T12:41:36;96193.59;;;18.41;100.00
11038;BME280;5572;49.540;11.932;2023-04-30T12:44:15;96256.44;;;18.50;100.00
11038;BME280;5572;49.540;11.932;2023-04-30T12:46:42;96097.84;;;18.57;100.00
11038;BME280;5572;49.540;11.932;2023-04-30T12:49:10;96137.06;;;18.61;100.00
11038;BME280;5572;49.540;11.932;2023-04-30T12:51:41;96128.53;;;18.93;100.00
11038;BME280;5572;49.540;11.932;2023-04-30T12:54:08;96128.53;;;18.78;100.00
11038;BME280;5572;49.540;11.932;2023-04-30T12:56:34;96073.50;;;19.63;100.00
11038;BME280;5572;49.540;11.932;2023-04-30T12:59:01;96127.13;;;18.99;100.00
11038;BME280;5572;49.540;11.932;2023-04-30T13:01:27;96125.56;;;19.44;100.00
11038;BME280;5572;49.540;11.932;2023-04-30T13:03:54;96170.72;;;19.81;100.00
11038;BME280;5572;49.540;11.932;2023-04-30T13:06:21;96232.19;;;18.01;100.00
11038;BME280;5572;49.540;11.932;2023-04-30T13:08:49;96115.72;;;18.39;100.00
11038;BME280;5572;49.540;11.932;2023-04-30T13:11:16;96185.09;;;19.01;100.00
11038;BME280;5572;49.540;11.932;2023-04-30T13:13:42;95855.97;;;19.78;100.00
11038;BME280;5572;49.540;11.932;2023-04-30T13:16:09;95910.28;;;20.33;100.00
11038;BME280;5572;49.540;11.932;2023-04-30T13:18:35;95965.28;;;18.73;100.00
11038;BME280;5572;49.540;11.932;2023-04-30T13:21:02;96103.94;;;18.23;100.00
11038;BME280;5572;49.540;11.932;2023-04-30T13:23:29;96051.97;;;18.38;100.00
11038;BME280;5572;49.540;11.932;2023-04-30T13:25:57;96033.00;;;19.22;100.00
11038;BME280;5572;49.540;11.932;2023-04-30T13:28:35;96230.25;;;18.25;100.00
11038;BME280;5572;49.540;11.932;2023-04-30T13:46:49;96241.66;;;17.55;100.00
11038;BME280;5572;49.540;11.932;2023-04-30T13:49:21;96268.66;;;18.28;100.00
11038;BME280;5572;49.540;11.932;2023-04-30T13:51:49;96219.84;;;18.70;100.00
11038;BME280;5572;49.540;11.932;2023-04-30T14:28:14;96314.56;;;17.63;100.00
11038;BME280;5572;49.540;11.932;2023-04-30T14:30:40;96313.13;;;18.13;100.00
11038;BME280;5572;49.540;11.932;2023-04-30T14:33:07;96279.13;;;18.38;100.00
11038;BME280;5572;49.540;11.932;2023-04-30T14:35:36;96356.00;;;18.45;100.00
11038;BME280;5572;49.540;11.932;2023-04-30T14:38:02;96262.59;;;19.29;100.00
11038;BME280;5572;49.540;11.932;2023-04-30T14:40:29;96239.19;;;19.78;100.00
11038;BME280;5572;49.540;11.932;2023-04-30T14:42:55;96162.19;;;18.94;100.00
11038;BME280;5572;49.540;11.932;2023-04-30T14:45:23;96140.84;;;19.61;100.00
11038;BME280;5572;49.540;11.932;2023-04-30T14:47:52;95931.53;;;20.36;100.00
11038;BME280;5572;49.540;11.932;2023-04-30T14:50:18;96129.41;;;18.66;100.00
11038;BME280;5572;49.540;11.932;2023-04-30T14:52:45;96085.16;;;18.80;100.00
11038;BME280;5572;49.540;11.932;2023-04-30T14:55:11;96154.47;;;19.26;100.00
11038;BME280;5572;49.540;11.932;2023-04-30T14:57:38;96073.34;;;19.56;100.00
11038;BME280;5572;49.540;11.932;2023-04-30T15:00:06;95971.47;;;19.73;100.00
11038;BME280;5572;49.540;11.932;2023-04-30T15:02:34;96193.91;;;19.22;100.00
11038;BME280;5572;49.540;11.932;2023-04-30T15:05:02;96125.97;;;19.00;100.00
11038;BME280;5572;49.540;11.932;2023-04-30T15:07:29;96089.06;;;19.25;100.00
11038;BME280;5572;49.540;11.932;2023-04-30T15:09:56;96175.13;;;18.38;100.00
11038;BME280;5572;49.540;11.932;2023-04-30T15:12:23;96107.94;;;18.84;100.00
11038;BME280;5572;49.540;11.932;2023-04-30T15:14:49;96049.28;;;19.15;100.00
11038;BME280;5572;49.540;11.932;2023-04-30T15:17:16;96145.47;;;19.10;100.00
11038;BME280;5572;49.540;11.932;2023-04-30T15:19:44;96134.25;;;18.18;100.00
11038;BME280;5572;49.540;11.932;2023-04-30T15:22:10;96146.38;;;18.05;100.00
11038;BME280;5572;49.540;11.932;2023-04-30T15:24:37;96009.19;;;18.61;100.00
11038;BME280;5572;49.540;11.932;2023-04-30T15:27:03;95981.97;;;19.52;100.00
11038;BME280;5572;49.540;11.932;2023-04-30T15:29:30;96065.84;;;18.30;100.00
11038;BME280;5572;49.540;11.932;2023-04-30T15:31:57;95995.88;;;19.09;100.00
11038;BME280;5572;49.540;11.932;2023-04-30T15:34:24;96037.34;;;18.93;100.00
11038;BME280;5572;49.540;11.932;2023-04-30T15:36:52;96003.31;;;19.09;100.00
11038;BME280;5572;49.540;11.932;2023-04-30T15:39:18;96145.34;;;18.49;100.00
11038;BME280;5572;49.540;11.932;2023-04-30T15:41:46;96182.69;;;18.17;100.00
11038;BME280;5572;49.540;11.932;2023-04-30T15:44:12;96094.06;;;18.34;100.00
11038;BME280;5572;49.540;11.932;2023-04-30T15:46:39;96136.16;;;18.29;100.00
11038;BME280;5572;49.540;11.932;2023-04-30T15:49:05;96137.94;;;18.65;100.00
11038;BME280;5572;49.540;11.932;2023-04-30T15:51:32;96305.31;;;18.63;100.00
11038;BME280;5572;49.540;11.932;2023-04-30T15:54:01;96389.63;;;18.10;100.00
11038;BME280;5572;49.540;11.932;2023-04-30T15:56:30;96275.28;;;18.27;100.00
11038;BME280;5572;49.540;11.932;2023-04-30T15:58:57;96255.00;;;18.68;100.00
11038;BME280;5572;49.540;11.932;2023-04-30T16:01:23;96224.34;;;17.99;100.00
11038;BME280;5572;49.540;11.932;2023-04-30T16:03:50;96208.50;;;17.93;100.00
11038;BME280;5572;49.540;11.932;2023-04-30T16:06:16;96184.22;;;18.97;100.00
11038;BME280;5572;49.540;11.932;2023-04-30T16:08:43;96223.97;;;18.91;100.00
11038;BME280;5572;49.540;11.932;2023-04-30T16:11:11;96318.66;;;19.04;100.00
11038;BME280;5572;49.540;11.932;2023-04-30T16:13:38;96084.47;;;19.63;100.00
11038;BME280;5572;49.540;11.932;2023-04-30T16:16:04;96139.72;;;18.73;100.00
11038;BME280;5572;49.540;11.932;2023-04-30T16:18:32;96169.63;;;19.20;100.00
11038;BME280;5572;49.540;11.932;2023-04-30T16:20:59;96115.06;;;18.57;100.00
11038;BME280;5572;49.540;11.932;2023-04-30T16:23:26;96193.69;;;18.06;100.00
11038;BME280;5572;49.540;11.932;2023-04-30T16:25:52;96249.53;;;17.69;100.00
11038;BME280;5572;49.540;11.932;2023-04-30T16:28:21;96346.53;;;18.07;100.00
11038;BME280;5572;49.540;11.932;2023-04-30T16:30:52;96353.47;;;18.05;100.00
11038;BME280;5572;49.540;11.932;2023-04-30T16:33:18;96399.41;;;17.99;100.00
11038;BME280;5572;49.540;11.932;2023-04-30T16:35:45;96405.28;;;18.21;100.00
11038;BME280;5572;49.540;11.932;2023-04-30T16:38:12;96373.06;;;18.18;100.00
11038;BME280;5572;49.540;11.932;2023-04-30T16:40:39;96382.97;;;17.87;100.00
11038;BME280;5572;49.540;11.932;2023-04-30T16:43:05;96485.56;;;18.25;100.00
11038;BME280;5572;49.540;11.932;2023-04-30T16:45:33;96452.84;;;17.64;100.00
11038;BME280;5572;49.540;11.932;2023-04-30T16:48:00;96581.06;;;17.98;100.00
11038;BME280;5572;49.540;11.932;2023-04-30T16:50:26;96346.19;;;17.97;100.00
11038;BME280;5572;49.540;11.932;2023-04-30T16:52:53;96394.13;;;17.82;100.00
11038;BME280;5572;49.540;11.932;2023-04-30T16:55:20;96427.09;;;18.10;100.00
11038;BME280;5572;49.540;11.932;2023-04-30T16:57:46;96483.66;;;18.17;100.00
11038;BME280;5572;49.540;11.932;2023-04-30T17:00:13;96483.09;;;17.80;100.00
11038;BME280;5572;49.540;11.932;2023-04-30T17:02:42;96327.22;;;17.68;100.00
11038;BME280;5572;49.540;11.932;2023-04-30T17:05:13;96394.97;;;17.50;100.00
11038;BME280;5572;49.540;11.932;2023-04-30T17:07:40;96448.50;;;17.51;100.00
11038;BME280;5572;49.540;11.932;2023-04-30T17:10:08;96482.31;;;17.79;100.00
11038;BME280;5572;49.540;11.932;2023-04-30T17:12:35;96464.59;;;17.04;100.00
11038;BME280;5572;49.540;11.932;2023-04-30T17:15:01;96473.00;;;16.99;100.00
11038;BME280;5572;49.540;11.932;2023-04-30T17:17:29;96519.13;;;17.21;100.00
11038;BME280;5572;49.540;11.932;2023-04-30T17:19:57;96508.50;;;16.99;100.00
11038;BME280;5572;49.540;11.932;2023-04-30T17:22:23;96487.44;;;16.99;100.00
11038;BME280;5572;49.540;11.932;2023-04-30T17:24:50;96522.84;;;17.16;100.00
11038;BME280;5572;49.540;11.932;2023-04-30T17:27:17;96470.03;;;17.04;100.00
11038;BME280;5572;49.540;11.932;2023-04-30T17:29:43;96419.63;;;17.22;100.00
11038;BME280;5572;49.540;11.932;2023-04-30T17:32:09;96361.81;;;17.20;100.00
11038;BME280;5572;49.540;11.932;2023-04-30T17:34:36;96440.53;;;17.58;100.00
11038;BME280;5572;49.540;11.932;2023-04-30T17:37:04;96365.13;;;17.57;100.00
11038;BME280;5572;49.540;11.932;2023-04-30T17:39:32;96418.56;;;17.14;100.00
11038;BME280;5572;49.540;11.932;2023-04-30T17:41:59;96470.41;;;16.73;100.00
11038;BME280;5572;49.540;11.932;2023-04-30T17:44:25;96415.31;;;16.80;100.00
11038;BME280;5572;49.540;11.932;2023-04-30T17:46:52;96415.31;;;16.80;100.00
11038;BME280;5572;49.540;11.932;2023-04-30T17:49:18;96493.50;;;16.47;100.00
11038;BME280;5572;49.540;11.932;2023-04-30T17:51:45;96591.59;;;16.35;100.00
11038;BME280;5572;49.540;11.932;2023-04-30T17:54:13;96553.09;;;16.20;100.00
11038;BME280;5572;49.540;11.932;2023-04-30T17:56:40;96533.56;;;16.09;100.00
11038;BME280;5572;49.540;11.932;2023-04-30T17:59:06;96602.53;;;16.18;100.00
11038;BME280;5572;49.540;11.932;2023-04-30T18:01:33;96621.00;;;15.79;100.00
11038;BME280;5572;49.540;11.932;2023-04-30T18:04:00;96693.28;;;15.68;100.00
11038;BME280;5572;49.540;11.932;2023-04-30T18:06:27;96713.47;;;15.58;100.00
11038;BME280;5572;49.540;11.932;2023-04-30T18:08:54;96737.13;;;15.41;100.00